sensor_id;sensor_type;location;lat;lon;timestamp;P1;durP1;ratioP1;P2;durP2;ratioP2
69775;SDS011;57049;51.450;-2.516;2023-04-24T00:01:31;1999.90;;;999.90;;
69775;SDS011;57049;51.450;-2.516;2023-04-24T00:03:59;1999.90;;;999.90;;
69775;SDS011;57049;51.450;-2.516;2023-04-24T00:06:25;1999.90;;;999.90;;
69775;SDS011;57049;51.450;-2.516;2023-04-24T00:08:57;1999.90;;;999.90;;
69775;SDS011;57049;51.450;-2.516;2023-04-24T00:11:26;1999.90;;;999.90;;
69775;SDS011;57049;51.450;-2.516;2023-04-24T00:13:52;1999.90;;;999.90;;
69775;SDS011;57049;51.450;-2.516;2023-04-24T00:16:17;1999.90;;;999.90;;
69775;SDS011;57049;51.450;-2.516;2023-04-24T00:18:43;1999.90;;;999.90;;
69775;SDS011;57049;51.450;-2.516;2023-04-24T00:21:10;1999.90;;;999.90;;
69775;SDS011;57049;51.450;-2.516;2023-04-24T00:23:35;1999.90;;;999.90;;
69775;SDS011;57049;51.450;-2.516;2023-04-24T00:26:01;1999.90;;;999.90;;
69775;SDS011;57049;51.450;-2.516;2023-04-24T00:28:27;1999.90;;;999.90;;
69775;SDS011;57049;51.450;-2.516;2023-04-24T00:30:52;1999.90;;;999.90;;
69775;SDS011;57049;51.450;-2.516;2023-04-24T00:33:18;1999.90;;;999.90;;
69775;SDS011;57049;51.450;-2.516;2023-04-24T00:35:44;1999.90;;;999.90;;
69775;SDS011;57049;51.450;-2.516;2023-04-24T00:38:10;1999.90;;;999.90;;
69775;SDS011;57049;51.450;-2.516;2023-04-24T00:40:35;1999.90;;;999.90;;
69775;SDS011;57049;51.450;-2.516;2023-04-24T00:43:01;1999.90;;;999.90;;
69775;SDS011;57049;51.450;-2.516;2023-04-24T00:45:26;1999.90;;;999.90;;
69775;SDS011;57049;51.450;-2.516;2023-04-24T00:47:52;1999.90;;;999.90;;
69775;SDS011;57049;51.450;-2.516;2023-04-24T00:50:18;1999.90;;;999.90;;
69775;SDS011;57049;51.450;-2.516;2023-04-24T00:52:46;1999.90;;;999.90;;
69775;SDS011;57049;51.450;-2.516;2023-04-24T00:55:12;1999.90;;;999.90;;
69775;SDS011;57049;51.450;-2.516;2023-04-24T00:57:37;1999.90;;;999.90;;
69775;SDS011;57049;51.450;-2.516;2023-04-24T01:00:04;1999.90;;;999.90;;
69775;SDS011;57049;51.450;-2.516;2023-04-24T01:02:33;1999.90;;;999.90;;
69775;SDS011;57049;51.450;-2.516;2023-04-24T01:05:00;1999.90;;;999.90;;
69775;SDS011;57049;51.450;-2.516;2023-04-24T01:07:26;1999.90;;;999.90;;
69775;SDS011;57049;51.450;-2.516;2023-04-24T01:09:52;1999.90;;;999.90;;
69775;SDS011;57049;51.450;-2.516;2023-04-24T01:12:18;1999.90;;;999.90;;
69775;SDS011;57049;51.450;-2.516;2023-04-24T01:14:44;1999.90;;;999.90;;
69775;SDS011;57049;51.450;-2.516;2023-04-24T01:17:10;1999.90;;;999.90;;
69775;SDS011;57049;51.450;-2.516;2023-04-24T01:19:36;1999.90;;;999.90;;
69775;SDS011;57049;51.450;-2.516;2023-04-24T01:22:02;1999.90;;;999.90;;
69775;SDS011;57049;51.450;-2.516;2023-04-24T01:24:28;1999.90;;;999.90;;
69775;SDS011;57049;51.450;-2.516;2023-04-24T01:26:54;1999.90;;;999.90;;
69775;SDS011;57049;51.450;-2.516;2023-04-24T01:29:20;1999.90;;;999.90;;
69775;SDS011;57049;51.450;-2.516;2023-04-24T01:31:46;1999.90;;;999.90;;
69775;SDS011;57049;51.450;-2.516;2023-04-24T01:34:12;1999.90;;;999.90;;
69775;SDS011;57049;51.450;-2.516;2023-04-24T01:36:38;1999.90;;;999.90;;
69775;SDS011;57049;51.450;-2.516;2023-04-24T01:39:05;1999.90;;;999.90;;
69775;SDS011;57049;51.450;-2.516;2023-04-24T01:41:31;1999.90;;;999.90;;
69775;SDS011;57049;51.450;-2.516;2023-04-24T01:43:57;1999.90;;;999.90;;
69775;SDS011;57049;51.450;-2.516;2023-04-24T01:46:23;1999.90;;;999.90;;
69775;SDS011;57049;51.450;-2.516;2023-04-24T01:48:49;1999.90;;;999.90;;
69775;SDS011;57049;51.450;-2.516;2023-04-24T01:51:16;1999.90;;;999.90;;
69775;SDS011;57049;51.450;-2.516;2023-04-24T01:53:42;1999.90;;;999.90;;
69775;SDS011;57049;51.450;-2.516;2023-04-24T01:56:07;1999.90;;;999.90;;
69775;SDS011;57049;51.450;-2.516;2023-04-24T01:58:34;1999.90;;;999.90;;
69775;SDS011;57049;51.450;-2.516;2023-04-24T02:00:59;1999.90;;;999.90;;
69775;SDS011;57049;51.450;-2.516;2023-04-24T02:03:25;1999.90;;;999.90;;
69775;SDS011;57049;51.450;-2.516;2023-04-24T02:05:57;1999.90;;;999.90;;
69775;SDS011;57049;51.450;-2.516;2023-04-24T02:08:22;1999.90;;;999.90;;
69775;SDS011;57049;51.450;-2.516;2023-04-24T02:10:48;1999.90;;;999.90;;
69775;SDS011;57049;51.450;-2.516;2023-04-24T02:13:13;1999.90;;;999.90;;
69775;SDS011;57049;51.450;-2.516;2023-04-24T02:15:39;1999.90;;;999.90;;
69775;SDS011;57049;51.450;-2.516;2023-04-24T02:18:04;1999.90;;;999.90;;
69775;SDS011;57049;51.450;-2.516;2023-04-24T02:20:31;1999.90;;;999.90;;
69775;SDS011;57049;51.450;-2.516;2023-04-24T02:22:59;1999.90;;;999.90;;
69775;SDS011;57049;51.450;-2.516;2023-04-24T02:25:24;1999.90;;;999.90;;
69775;SDS011;57049;51.450;-2.516;2023-04-24T02:27:50;1999.90;;;999.90;;
69775;SDS011;57049;51.450;-2.516;2023-04-24T02:30:15;1999.90;;;999.90;;
69775;SDS011;57049;51.450;-2.516;2023-04-24T02:32:41;1999.90;;;999.90;;
69775;SDS011;57049;51.450;-2.516;2023-04-24T02:35:06;1999.90;;;999.90;;
69775;SDS011;57049;51.450;-2.516;2023-04-24T02:37:32;1999.90;;;999.90;;
69775;SDS011;57049;51.450;-2.516;2023-04-24T02:39:57;1999.90;;;999.90;;
69775;SDS011;57049;51.450;-2.516;2023-04-24T02:42:23;1999.90;;;999.90;;
69775;SDS011;57049;51.450;-2.516;2023-04-24T02:44:48;1999.90;;;999.90;;
69775;SDS011;57049;51.450;-2.516;2023-04-24T02:47:16;1999.90;;;999.90;;
69775;SDS011;57049;51.450;-2.516;2023-04-24T02:49:41;1999.90;;;999.90;;
69775;SDS011;57049;51.450;-2.516;2023-04-24T02:52:07;1999.90;;;999.90;;
69775;SDS011;57049;51.450;-2.516;2023-04-24T02:54:32;1999.90;;;999.90;;
69775;SDS011;57049;51.450;-2.516;2023-04-24T02:56:58;1999.90;;;999.90;;
69775;SDS011;57049;51.450;-2.516;2023-04-24T02:59:27;1999.90;;;999.90;;
69775;SDS011;57049;51.450;-2.516;2023-04-24T03:01:53;1999.90;;;999.90;;
69775;SDS011;57049;51.450;-2.516;2023-04-24T03:04:19;1999.90;;;999.90;;
69775;SDS011;57049;51.450;-2.516;2023-04-24T03:06:45;1999.90;;;999.90;;
69775;SDS011;57049;51.450;-2.516;2023-04-24T03:09:11;1999.90;;;999.90;;
69775;SDS011;57049;51.450;-2.516;2023-04-24T03:11:36;1999.90;;;999.90;;
69775;SDS011;57049;51.450;-2.516;2023-04-24T03:14:02;1999.90;;;999.90;;
69775;SDS011;57049;51.450;-2.516;2023-04-24T03:16:30;1999.90;;;999.90;;
69775;SDS011;57049;51.450;-2.516;2023-04-24T03:18:55;1999.90;;;999.90;;
69775;SDS011;57049;51.450;-2.516;2023-04-24T03:21:21;1999.90;;;999.90;;
69775;SDS011;57049;51.450;-2.516;2023-04-24T03:23:47;1999.90;;;999.90;;
69775;SDS011;57049;51.450;-2.516;2023-04-24T03:26:12;1999.90;;;999.90;;
69775;SDS011;57049;51.450;-2.516;2023-04-24T03:28:38;1999.90;;;999.90;;
69775;SDS011;57049;51.450;-2.516;2023-04-24T03:31:06;1999.90;;;999.90;;
69775;SDS011;57049;51.450;-2.516;2023-04-24T03:33:32;1999.90;;;999.90;;
69775;SDS011;57049;51.450;-2.516;2023-04-24T03:35:57;1999.90;;;999.90;;
69775;SDS011;57049;51.450;-2.516;2023-04-24T03:38:23;1999.90;;;999.90;;
69775;SDS011;57049;51.450;-2.516;2023-04-24T03:40:48;1999.90;;;999.90;;
69775;SDS011;57049;51.450;-2.516;2023-04-24T03:43:14;1999.90;;;999.90;;
69775;SDS011;57049;51.450;-2.516;2023-04-24T03:45:39;1999.90;;;999.90;;
69775;SDS011;57049;51.450;-2.516;2023-04-24T03:48:05;1999.90;;;999.90;;
69775;SDS011;57049;51.450;-2.516;2023-04-24T03:50:30;1999.90;;;999.90;;
69775;SDS011;57049;51.450;-2.516;2023-04-24T03:52:56;1999.90;;;999.90;;
69775;SDS011;57049;51.450;-2.516;2023-04-24T03:55:21;1999.90;;;999.90;;
69775;SDS011;57049;51.450;-2.516;2023-04-24T03:57:47;1999.90;;;999.90;;
69775;SDS011;57049;51.450;-2.516;2023-04-24T04:00:13;1999.90;;;999.90;;
69775;SDS011;57049;51.450;-2.516;2023-04-24T04:02:39;1999.90;;;999.90;;
69775;SDS011;57049;51.450;-2.516;2023-04-24T04:05:04;1999.90;;;999.90;;
69775;SDS011;57049;51.450;-2.516;2023-04-24T04:07:30;1999.90;;;999.90;;
69775;SDS011;57049;51.450;-2.516;2023-04-24T04:09:55;1999.90;;;999.90;;
69775;SDS011;57049;51.450;-2.516;2023-04-24T04:12:21;1999.90;;;999.90;;
69775;SDS011;57049;51.450;-2.516;2023-04-24T04:14:47;1999.90;;;999.90;;
69775;SDS011;57049;51.450;-2.516;2023-04-24T04:17:12;1999.90;;;999.90;;
69775;SDS011;57049;51.450;-2.516;2023-04-24T04:19:42;1999.90;;;999.90;;
69775;SDS011;57049;51.450;-2.516;2023-04-24T04:22:08;1999.90;;;999.90;;
69775;SDS011;57049;51.450;-2.516;2023-04-24T04:24:33;1999.90;;;999.90;;
69775;SDS011;57049;51.450;-2.516;2023-04-24T04:27:03;1999.90;;;999.90;;
69775;SDS011;57049;51.450;-2.516;2023-04-24T04:29:32;1999.90;;;999.90;;
69775;SDS011;57049;51.450;-2.516;2023-04-24T04:32:01;1999.90;;;999.90;;
69775;SDS011;57049;51.450;-2.516;2023-04-24T04:34:27;1999.90;;;999.90;;
69775;SDS011;57049;51.450;-2.516;2023-04-24T04:36:53;1999.90;;;999.90;;
69775;SDS011;57049;51.450;-2.516;2023-04-24T04:39:18;1999.90;;;999.90;;
69775;SDS011;57049;51.450;-2.516;2023-04-24T04:41:44;1999.90;;;999.90;;
69775;SDS011;57049;51.450;-2.516;2023-04-24T04:44:13;1999.90;;;999.90;;
69775;SDS011;57049;51.450;-2.516;2023-04-24T04:46:40;1999.90;;;999.90;;
69775;SDS011;57049;51.450;-2.516;2023-04-24T04:49:06;1999.90;;;999.90;;
69775;SDS011;57049;51.450;-2.516;2023-04-24T04:51:33;1999.90;;;999.90;;
69775;SDS011;57049;51.450;-2.516;2023-04-24T04:53:59;1999.90;;;999.90;;
69775;SDS011;57049;51.450;-2.516;2023-04-24T04:56:25;1999.90;;;999.90;;
69775;SDS011;57049;51.450;-2.516;2023-04-24T04:58:51;1999.90;;;999.90;;
69775;SDS011;57049;51.450;-2.516;2023-04-24T05:01:16;1999.90;;;999.90;;
69775;SDS011;57049;51.450;-2.516;2023-04-24T05:03:42;1999.90;;;999.90;;
69775;SDS011;57049;51.450;-2.516;2023-04-24T05:06:08;1999.90;;;999.90;;
69775;SDS011;57049;51.450;-2.516;2023-04-24T05:08:34;1999.90;;;999.90;;
69775;SDS011;57049;51.450;-2.516;2023-04-24T05:10:59;1999.90;;;999.90;;
69775;SDS011;57049;51.450;-2.516;2023-04-24T05:13:25;1999.90;;;999.90;;
69775;SDS011;57049;51.450;-2.516;2023-04-24T05:15:51;1999.90;;;999.90;;
69775;SDS011;57049;51.450;-2.516;2023-04-24T05:18:16;1999.90;;;999.90;;
69775;SDS011;57049;51.450;-2.516;2023-04-24T05:20:42;1999.90;;;999.90;;
69775;SDS011;57049;51.450;-2.516;2023-04-24T05:23:09;1999.90;;;999.90;;
69775;SDS011;57049;51.450;-2.516;2023-04-24T05:25:35;1999.90;;;999.90;;
69775;SDS011;57049;51.450;-2.516;2023-04-24T05:28:01;1999.90;;;999.90;;
69775;SDS011;57049;51.450;-2.516;2023-04-24T05:30:27;1999.90;;;999.90;;
69775;SDS011;57049;51.450;-2.516;2023-04-24T05:32:53;1999.90;;;999.90;;
69775;SDS011;57049;51.450;-2.516;2023-04-24T05:35:21;1999.90;;;999.90;;
69775;SDS011;57049;51.450;-2.516;2023-04-24T05:37:46;1999.90;;;999.90;;
69775;SDS011;57049;51.450;-2.516;2023-04-24T05:40:12;1999.90;;;999.90;;
69775;SDS011;57049;51.450;-2.516;2023-04-24T05:42:38;1999.90;;;999.90;;
69775;SDS011;57049;51.450;-2.516;2023-04-24T05:45:03;1999.90;;;999.90;;
69775;SDS011;57049;51.450;-2.516;2023-04-24T05:47:32;1999.90;;;999.90;;
69775;SDS011;57049;51.450;-2.516;2023-04-24T05:49:58;1999.90;;;999.90;;
69775;SDS011;57049;51.450;-2.516;2023-04-24T05:52:23;1999.90;;;999.90;;
69775;SDS011;57049;51.450;-2.516;2023-04-24T05:54:49;1999.90;;;999.90;;
69775;SDS011;57049;51.450;-2.516;2023-04-24T05:57:14;1999.90;;;999.90;;
69775;SDS011;57049;51.450;-2.516;2023-04-24T05:59:40;1999.90;;;999.90;;
69775;SDS011;57049;51.450;-2.516;2023-04-24T06:02:06;1999.90;;;999.90;;
69775;SDS011;57049;51.450;-2.516;2023-04-24T06:04:32;1999.90;;;999.90;;
69775;SDS011;57049;51.450;-2.516;2023-04-24T06:06:58;1999.90;;;999.90;;
69775;SDS011;57049;51.450;-2.516;2023-04-24T06:09:24;1999.90;;;999.90;;
69775;SDS011;57049;51.450;-2.516;2023-04-24T06:11:50;1999.90;;;999.90;;
69775;SDS011;57049;51.450;-2.516;2023-04-24T06:14:20;1999.90;;;999.90;;
69775;SDS011;57049;51.450;-2.516;2023-04-24T06:16:46;1999.90;;;999.90;;
69775;SDS011;57049;51.450;-2.516;2023-04-24T06:19:11;1531.10;;;762.55;;
69775;SDS011;57049;51.450;-2.516;2023-04-24T06:21:37;224.60;;;146.33;;
69775;SDS011;57049;51.450;-2.516;2023-04-24T06:24:03;305.65;;;175.63;;
69775;SDS011;57049;51.450;-2.516;2023-04-24T06:26:29;353.23;;;223.32;;
69775;SDS011;57049;51.450;-2.516;2023-04-24T06:28:54;395.60;;;325.80;;
69775;SDS011;57049;51.450;-2.516;2023-04-24T06:31:20;204.27;;;186.17;;
69775;SDS011;57049;51.450;-2.516;2023-04-24T06:33:46;102.10;;;95.30;;
69775;SDS011;57049;51.450;-2.516;2023-04-24T06:36:11;107.07;;;97.23;;
69775;SDS011;57049;51.450;-2.516;2023-04-24T06:38:37;78.88;;;73.95;;
69775;SDS011;57049;51.450;-2.516;2023-04-24T06:41:03;42.57;;;37.97;;
69775;SDS011;57049;51.450;-2.516;2023-04-24T06:43:33;52.53;;;47.53;;
69775;SDS011;57049;51.450;-2.516;2023-04-24T06:45:59;30.17;;;20.75;;
69775;SDS011;57049;51.450;-2.516;2023-04-24T06:48:25;28.00;;;20.88;;
69775;SDS011;57049;51.450;-2.516;2023-04-24T06:50:51;28.23;;;25.90;;
69775;SDS011;57049;51.450;-2.516;2023-04-24T06:53:18;48.13;;;44.58;;
69775;SDS011;57049;51.450;-2.516;2023-04-24T06:55:43;66.10;;;59.95;;
69775;SDS011;57049;51.450;-2.516;2023-04-24T06:58:12;238.60;;;212.23;;
69775;SDS011;57049;51.450;-2.516;2023-04-24T07:00:38;354.63;;;266.27;;
69775;SDS011;57049;51.450;-2.516;2023-04-24T07:03:04;515.53;;;286.90;;
69775;SDS011;57049;51.450;-2.516;2023-04-24T07:05:32;418.02;;;204.80;;
69775;SDS011;57049;51.450;-2.516;2023-04-24T07:08:03;411.95;;;151.07;;
69775;SDS011;57049;51.450;-2.516;2023-04-24T07:10:29;345.38;;;133.38;;
69775;SDS011;57049;51.450;-2.516;2023-04-24T07:12:55;322.23;;;123.93;;
69775;SDS011;57049;51.450;-2.516;2023-04-24T07:15:21;235.60;;;91.57;;
69775;SDS011;57049;51.450;-2.516;2023-04-24T07:17:48;282.70;;;105.15;;
69775;SDS011;57049;51.450;-2.516;2023-04-24T07:20:13;785.87;;;369.40;;
69775;SDS011;57049;51.450;-2.516;2023-04-24T07:22:39;1156.65;;;558.10;;
69775;SDS011;57049;51.450;-2.516;2023-04-24T07:25:05;1999.90;;;999.90;;
69775;SDS011;57049;51.450;-2.516;2023-04-24T07:27:31;1999.90;;;999.90;;
69775;SDS011;57049;51.450;-2.516;2023-04-24T07:29:57;1999.90;;;999.90;;
69775;SDS011;57049;51.450;-2.516;2023-04-24T07:32:23;1397.27;;;695.27;;
69775;SDS011;57049;51.450;-2.516;2023-04-24T07:34:48;1999.90;;;999.90;;
69775;SDS011;57049;51.450;-2.516;2023-04-24T07:37:13;1386.77;;;679.17;;
69775;SDS011;57049;51.450;-2.516;2023-04-24T07:39:39;1999.90;;;999.90;;
69775;SDS011;57049;51.450;-2.516;2023-04-24T07:42:04;1999.90;;;999.90;;
69775;SDS011;57049;51.450;-2.516;2023-04-24T07:44:30;1999.90;;;999.90;;
69775;SDS011;57049;51.450;-2.516;2023-04-24T07:46:57;1999.90;;;999.90;;
69775;SDS011;57049;51.450;-2.516;2023-04-24T07:49:22;1999.90;;;999.90;;
69775;SDS011;57049;51.450;-2.516;2023-04-24T07:51:48;1999.90;;;999.90;;
69775;SDS011;57049;51.450;-2.516;2023-04-24T07:54:14;1999.90;;;999.90;;
69775;SDS011;57049;51.450;-2.516;2023-04-24T07:56:40;1999.90;;;999.90;;
69775;SDS011;57049;51.450;-2.516;2023-04-24T07:59:07;1999.90;;;999.90;;
69775;SDS011;57049;51.450;-2.516;2023-04-24T08:01:35;1379.90;;;688.83;;
69775;SDS011;57049;51.450;-2.516;2023-04-24T08:04:00;1999.90;;;999.90;;
69775;SDS011;57049;51.450;-2.516;2023-04-24T08:06:26;275.90;;;127.25;;
69775;SDS011;57049;51.450;-2.516;2023-04-24T08:08:57;185.30;;;107.15;;
69775;SDS011;57049;51.450;-2.516;2023-04-24T08:11:23;365.90;;;144.40;;
69775;SDS011;57049;51.450;-2.516;2023-04-24T08:13:49;391.50;;;168.20;;
69775;SDS011;57049;51.450;-2.516;2023-04-24T08:16:15;321.02;;;198.60;;
69775;SDS011;57049;51.450;-2.516;2023-04-24T08:18:40;1456.83;;;735.03;;
69775;SDS011;57049;51.450;-2.516;2023-04-24T08:21:06;534.47;;;220.27;;
69775;SDS011;57049;51.450;-2.516;2023-04-24T08:23:31;308.07;;;94.43;;
69775;SDS011;57049;51.450;-2.516;2023-04-24T08:25:57;403.00;;;146.27;;
69775;SDS011;57049;51.450;-2.516;2023-04-24T08:28:23;425.60;;;194.80;;
69775;SDS011;57049;51.450;-2.516;2023-04-24T08:30:48;397.00;;;102.77;;
69775;SDS011;57049;51.450;-2.516;2023-04-24T08:33:19;1153.97;;;546.20;;
69775;SDS011;57049;51.450;-2.516;2023-04-24T08:35:45;399.95;;;161.50;;
69775;SDS011;57049;51.450;-2.516;2023-04-24T08:38:10;1453.03;;;720.27;;
69775;SDS011;57049;51.450;-2.516;2023-04-24T08:40:36;1409.10;;;686.73;;
69775;SDS011;57049;51.450;-2.516;2023-04-24T08:43:02;340.27;;;114.97;;
69775;SDS011;57049;51.450;-2.516;2023-04-24T08:45:28;1999.90;;;999.90;;
69775;SDS011;57049;51.450;-2.516;2023-04-24T08:47:54;1999.90;;;999.90;;
69775;SDS011;57049;51.450;-2.516;2023-04-24T08:50:21;1999.90;;;999.90;;
69775;SDS011;57049;51.450;-2.516;2023-04-24T08:52:48;1999.90;;;999.90;;
69775;SDS011;57049;51.450;-2.516;2023-04-24T08:55:15;1999.90;;;999.90;;
69775;SDS011;57049;51.450;-2.516;2023-04-24T08:57:45;1999.90;;;999.90;;
69775;SDS011;57049;51.450;-2.516;2023-04-24T09:00:16;1999.90;;;999.90;;
69775;SDS011;57049;51.450;-2.516;2023-04-24T09:02:43;1999.90;;;999.90;;
69775;SDS011;57049;51.450;-2.516;2023-04-24T09:05:10;1999.90;;;999.90;;
69775;SDS011;57049;51.450;-2.516;2023-04-24T09:07:36;1999.90;;;999.90;;
69775;SDS011;57049;51.450;-2.516;2023-04-24T09:10:04;1040.55;;;514.95;;
69775;SDS011;57049;51.450;-2.516;2023-04-24T09:12:32;1999.90;;;999.90;;
69775;SDS011;57049;51.450;-2.516;2023-04-24T09:14:59;1999.90;;;999.90;;
69775;SDS011;57049;51.450;-2.516;2023-04-24T09:17:25;1999.90;;;999.90;;
69775;SDS011;57049;51.450;-2.516;2023-04-24T09:19:53;1999.90;;;999.90;;
69775;SDS011;57049;51.450;-2.516;2023-04-24T09:22:18;1999.90;;;999.90;;
69775;SDS011;57049;51.450;-2.516;2023-04-24T09:24:45;1999.90;;;999.90;;
69775;SDS011;57049;51.450;-2.516;2023-04-24T09:27:11;1999.90;;;999.90;;
69775;SDS011;57049;51.450;-2.516;2023-04-24T09:29:37;1999.90;;;999.90;;
69775;SDS011;57049;51.450;-2.516;2023-04-24T09:32:22;1999.90;;;999.90;;
69775;SDS011;57049;51.450;-2.516;2023-04-24T09:34:50;1999.90;;;999.90;;
69775;SDS011;57049;51.450;-2.516;2023-04-24T09:37:46;1999.90;;;999.90;;
69775;SDS011;57049;51.450;-2.516;2023-04-24T09:40:16;1999.90;;;999.90;;
69775;SDS011;57049;51.450;-2.516;2023-04-24T09:42:44;1999.90;;;999.90;;
69775;SDS011;57049;51.450;-2.516;2023-04-24T09:45:20;1999.90;;;999.90;;
69775;SDS011;57049;51.450;-2.516;2023-04-24T09:47:46;1999.90;;;999.90;;
69775;SDS011;57049;51.450;-2.516;2023-04-24T09:50:17;1999.90;;;999.90;;
69775;SDS011;57049;51.450;-2.516;2023-04-24T09:52:46;1999.90;;;999.90;;
69775;SDS011;57049;51.450;-2.516;2023-04-24T09:55:21;1999.90;;;999.90;;
69775;SDS011;57049;51.450;-2.516;2023-04-24T09:57:57;1999.90;;;999.90;;
69775;SDS011;57049;51.450;-2.516;2023-04-24T10:00:28;1999.90;;;999.90;;
69775;SDS011;57049;51.450;-2.516;2023-04-24T10:05:31;1515.53;;;758.47;;
69775;SDS011;57049;51.450;-2.516;2023-04-24T10:08:07;1999.90;;;999.90;;
69775;SDS011;57049;51.450;-2.516;2023-04-24T10:10:35;1999.90;;;999.90;;
69775;SDS011;57049;51.450;-2.516;2023-04-24T10:13:10;1999.90;;;999.90;;
69775;SDS011;57049;51.450;-2.516;2023-04-24T10:15:36;1999.90;;;999.90;;
69775;SDS011;57049;51.450;-2.516;2023-04-24T10:18:04;1525.20;;;765.35;;
69775;SDS011;57049;51.450;-2.516;2023-04-24T10:20:31;1999.90;;;999.90;;
69775;SDS011;57049;51.450;-2.516;2023-04-24T10:22:58;1999.90;;;999.90;;
69775;SDS011;57049;51.450;-2.516;2023-04-24T10:25:25;1999.90;;;999.90;;
69775;SDS011;57049;51.450;-2.516;2023-04-24T10:27:56;1087.53;;;537.00;;
69775;SDS011;57049;51.450;-2.516;2023-04-24T10:30:24;582.03;;;292.75;;
69775;SDS011;57049;51.450;-2.516;2023-04-24T10:32:51;1216.35;;;551.17;;
69775;SDS011;57049;51.450;-2.516;2023-04-24T10:35:17;40.23;;;17.33;;
69775;SDS011;57049;51.450;-2.516;2023-04-24T10:38:18;1999.90;;;999.90;;
69775;SDS011;57049;51.450;-2.516;2023-04-24T10:40:36;1999.90;;;999.90;;
69775;SDS011;57049;51.450;-2.516;2023-04-24T10:43:02;171.97;;;38.77;;
69775;SDS011;57049;51.450;-2.516;2023-04-24T10:45:31;1112.50;;;554.33;;
69775;SDS011;57049;51.450;-2.516;2023-04-24T10:47:57;60.90;;;17.02;;
69775;SDS011;57049;51.450;-2.516;2023-04-24T10:50:26;1095.95;;;539.20;;
69775;SDS011;57049;51.450;-2.516;2023-04-24T10:52:53;1999.90;;;999.90;;
69775;SDS011;57049;51.450;-2.516;2023-04-24T10:58:09;1999.90;;;999.90;;
69775;SDS011;57049;51.450;-2.516;2023-04-24T11:00:39;1999.90;;;999.90;;
69775;SDS011;57049;51.450;-2.516;2023-04-24T11:03:06;1999.90;;;999.90;;
69775;SDS011;57049;51.450;-2.516;2023-04-24T11:05:55;1999.90;;;999.90;;
69775;SDS011;57049;51.450;-2.516;2023-04-24T11:10:58;1999.90;;;999.90;;
69775;SDS011;57049;51.450;-2.516;2023-04-24T11:14:29;1031.43;;;512.25;;
69775;SDS011;57049;51.450;-2.516;2023-04-24T11:19:17;1999.90;;;999.90;;
69775;SDS011;57049;51.450;-2.516;2023-04-24T11:21:47;1999.90;;;999.90;;
69775;SDS011;57049;51.450;-2.516;2023-04-24T11:24:31;1999.90;;;999.90;;
69775;SDS011;57049;51.450;-2.516;2023-04-24T11:27:17;1032.60;;;512.08;;
69775;SDS011;57049;51.450;-2.516;2023-04-24T11:32:29;1999.90;;;999.90;;
69775;SDS011;57049;51.450;-2.516;2023-04-24T11:34:55;1999.90;;;999.90;;
69775;SDS011;57049;51.450;-2.516;2023-04-24T11:37:36;1999.90;;;999.90;;
69775;SDS011;57049;51.450;-2.516;2023-04-24T11:40:07;1999.90;;;999.90;;
69775;SDS011;57049;51.450;-2.516;2023-04-24T11:42:36;1999.90;;;999.90;;
69775;SDS011;57049;51.450;-2.516;2023-04-24T11:45:06;1999.90;;;999.90;;
69775;SDS011;57049;51.450;-2.516;2023-04-24T11:47:34;1999.90;;;999.90;;
69775;SDS011;57049;51.450;-2.516;2023-04-24T11:50:00;1999.90;;;999.90;;
69775;SDS011;57049;51.450;-2.516;2023-04-24T11:52:26;1999.90;;;999.90;;
69775;SDS011;57049;51.450;-2.516;2023-04-24T11:54:52;1999.90;;;999.90;;
69775;SDS011;57049;51.450;-2.516;2023-04-24T11:57:21;1999.90;;;999.90;;
69775;SDS011;57049;51.450;-2.516;2023-04-24T11:59:49;1380.63;;;690.30;;
69775;SDS011;57049;51.450;-2.516;2023-04-24T12:02:24;1514.93;;;757.45;;
69775;SDS011;57049;51.450;-2.516;2023-04-24T12:04:51;1999.90;;;999.90;;
69775;SDS011;57049;51.450;-2.516;2023-04-24T12:07:17;1069.85;;;540.20;;
69775;SDS011;57049;51.450;-2.516;2023-04-24T12:09:44;1999.90;;;999.90;;
69775;SDS011;57049;51.450;-2.516;2023-04-24T12:12:14;1999.90;;;999.90;;
69775;SDS011;57049;51.450;-2.516;2023-04-24T12:15:06;1999.90;;;999.90;;
69775;SDS011;57049;51.450;-2.516;2023-04-24T12:17:32;1999.90;;;999.90;;
69775;SDS011;57049;51.450;-2.516;2023-04-24T12:20:05;1999.90;;;999.90;;
69775;SDS011;57049;51.450;-2.516;2023-04-24T12:22:48;617.97;;;284.10;;
69775;SDS011;57049;51.450;-2.516;2023-04-24T12:25:23;1057.97;;;513.50;;
69775;SDS011;57049;51.450;-2.516;2023-04-24T12:27:54;1999.90;;;999.90;;
69775;SDS011;57049;51.450;-2.516;2023-04-24T12:30:29;1999.90;;;999.90;;
69775;SDS011;57049;51.450;-2.516;2023-04-24T12:32:59;1999.90;;;999.90;;
69775;SDS011;57049;51.450;-2.516;2023-04-24T12:35:29;1999.90;;;999.90;;
69775;SDS011;57049;51.450;-2.516;2023-04-24T12:38:04;1999.90;;;999.90;;
69775;SDS011;57049;51.450;-2.516;2023-04-24T12:40:33;1999.90;;;999.90;;
69775;SDS011;57049;51.450;-2.516;2023-04-24T12:42:59;1999.90;;;999.90;;
69775;SDS011;57049;51.450;-2.516;2023-04-24T12:45:24;1999.90;;;999.90;;
69775;SDS011;57049;51.450;-2.516;2023-04-24T12:47:50;1999.90;;;999.90;;
69775;SDS011;57049;51.450;-2.516;2023-04-24T12:50:16;1999.90;;;999.90;;
69775;SDS011;57049;51.450;-2.516;2023-04-24T12:52:41;91.97;;;18.27;;
69775;SDS011;57049;51.450;-2.516;2023-04-24T12:55:08;1999.90;;;999.90;;
69775;SDS011;57049;51.450;-2.516;2023-04-24T12:57:34;1999.90;;;999.90;;
69775;SDS011;57049;51.450;-2.516;2023-04-24T13:00:01;1999.90;;;999.90;;
69775;SDS011;57049;51.450;-2.516;2023-04-24T13:02:27;315.30;;;126.95;;
69775;SDS011;57049;51.450;-2.516;2023-04-24T13:04:55;1999.90;;;999.90;;
69775;SDS011;57049;51.450;-2.516;2023-04-24T13:07:21;270.03;;;109.43;;
69775;SDS011;57049;51.450;-2.516;2023-04-24T13:09:47;57.57;;;15.63;;
69775;SDS011;57049;51.450;-2.516;2023-04-24T13:12:14;1999.90;;;999.90;;
69775;SDS011;57049;51.450;-2.516;2023-04-24T13:14:40;1999.90;;;999.90;;
69775;SDS011;57049;51.450;-2.516;2023-04-24T13:17:05;1999.90;;;999.90;;
69775;SDS011;57049;51.450;-2.516;2023-04-24T13:19:35;1999.90;;;999.90;;
69775;SDS011;57049;51.450;-2.516;2023-04-24T13:22:02;1575.30;;;769.75;;
69775;SDS011;57049;51.450;-2.516;2023-04-24T13:24:28;1999.90;;;999.90;;
69775;SDS011;57049;51.450;-2.516;2023-04-24T13:26:53;1387.07;;;689.07;;
69775;SDS011;57049;51.450;-2.516;2023-04-24T13:29:19;1999.90;;;999.90;;
69775;SDS011;57049;51.450;-2.516;2023-04-24T13:31:45;1999.90;;;999.90;;
69775;SDS011;57049;51.450;-2.516;2023-04-24T13:34:12;1999.90;;;999.90;;
69775;SDS011;57049;51.450;-2.516;2023-04-24T13:36:38;1999.90;;;999.90;;
69775;SDS011;57049;51.450;-2.516;2023-04-24T13:39:03;148.70;;;60.07;;
69775;SDS011;57049;51.450;-2.516;2023-04-24T13:41:30;1999.90;;;999.90;;
69775;SDS011;57049;51.450;-2.516;2023-04-24T13:43:56;1999.90;;;999.90;;
69775;SDS011;57049;51.450;-2.516;2023-04-24T13:46:21;1072.95;;;516.65;;
69775;SDS011;57049;51.450;-2.516;2023-04-24T13:48:47;685.83;;;339.23;;
69775;SDS011;57049;51.450;-2.516;2023-04-24T13:51:12;1339.40;;;668.03;;